createdAt,value
2023-04-02T00:01:00.780Z,97995.81
2023-04-02T00:03:27.214Z,97998.06
2023-04-02T00:05:53.661Z,98001.47
2023-04-02T00:08:20.124Z,98000.22
2023-04-02T00:10:46.567Z,98000.00
2023-04-02T00:13:12.901Z,98008.47
2023-04-02T00:15:39.241Z,98005.75
2023-04-02T00:18:05.625Z,98008.84
2023-04-02T00:20:32.000Z,98009.16
2023-04-02T00:22:58.341Z,98002.00
2023-04-02T00:25:24.715Z,98012.09
2023-04-02T00:27:51.018Z,98010.91
2023-04-02T00:30:17.636Z,98010.06
2023-04-02T00:32:44.053Z,98009.91
2023-04-02T00:35:10.423Z,98011.38
2023-04-02T00:37:36.772Z,98010.91
2023-04-02T00:40:03.168Z,98016.69
2023-04-02T00:42:29.693Z,98011.94
2023-04-02T00:44:56.009Z,98015.75
2023-04-02T00:47:22.363Z,98021.56
2023-04-02T00:49:48.726Z,98025.72
2023-04-02T00:52:15.052Z,98019.16
2023-04-02T00:54:41.425Z,98017.69
2023-04-02T00:57:07.812Z,98013.72
2023-04-02T00:59:34.179Z,98021.19
2023-04-02T01:02:00.562Z,98025.53
2023-04-02T01:04:26.960Z,98022.81
2023-04-02T01:06:53.339Z,98021.66
2023-04-02T01:09:19.754Z,98023.59
2023-04-02T01:11:46.132Z,98024.75
2023-04-02T01:14:12.449Z,98020.88
2023-04-02T01:16:39.304Z,98033.69
2023-04-02T01:19:05.654Z,98029.34
2023-04-02T01:21:32.074Z,98036.41
2023-04-02T01:23:58.541Z,98038.31
2023-04-02T01:26:24.856Z,98032.88
2023-04-02T01:28:51.198Z,98030.84
2023-04-02T01:31:17.715Z,98032.63
2023-04-02T01:33:44.120Z,98038.06
2023-04-02T01:36:10.561Z,98042.25
2023-04-02T01:38:37.026Z,98042.25
2023-04-02T01:41:03.411Z,98039.53
2023-04-02T01:43:29.750Z,98030.59
2023-04-02T01:45:56.184Z,98042.13
2023-04-02T01:48:22.730Z,98047.25
2023-04-02T01:50:49.214Z,98055.41
2023-04-02T01:53:15.607Z,98043.25
2023-04-02T01:55:42.009Z,98049.81
2023-04-02T01:58:08.336Z,98050.16
2023-04-02T02:00:35.632Z,98052.88
2023-04-02T02:03:02.240Z,98051.31
2023-04-02T02:05:29.346Z,98054.69
2023-04-02T02:07:56.538Z,98054.69
2023-04-02T02:10:22.984Z,98045.28
2023-04-02T02:12:49.319Z,98059.66
2023-04-02T02:15:15.673Z,98060.78
2023-04-02T02:17:42.019Z,98057.25
2023-04-02T02:20:08.340Z,98057.59
2023-04-02T02:22:34.786Z,98064.97
2023-04-02T02:25:01.118Z,98061.00
2023-04-02T02:27:27.478Z,98068.00
2023-04-02T02:30:02.726Z,98070.25
2023-04-02T02:32:29.463Z,98067.53
2023-04-02T02:34:56.398Z,98073.63
2023-04-02T02:37:23.608Z,98073.19
2023-04-02T02:39:50.575Z,98072.06
2023-04-02T02:42:16.957Z,98076.69
2023-04-02T02:44:43.749Z,98075.44
2023-04-02T02:47:10.343Z,98063.78
2023-04-02T02:49:36.710Z,98082.81
2023-04-02T02:52:04.286Z,98078.16
2023-04-02T02:54:37.763Z,98074.19
2023-04-02T02:57:04.303Z,98084.25
2023-04-02T02:59:30.979Z,98084.56
2023-04-02T03:01:57.934Z,98086.50
2023-04-02T03:04:24.443Z,98086.06
2023-04-02T03:06:53.925Z,98091.81
2023-04-02T03:09:22.081Z,98096.47
2023-04-02T03:11:48.480Z,98084.00
2023-04-02T03:14:18.746Z,98088.97
2023-04-02T03:16:45.267Z,98087.25
2023-04-02T03:19:12.296Z,98088.25
2023-04-02T03:21:38.637Z,98096.03
2023-04-02T03:24:04.996Z,98093.69
2023-04-02T03:26:31.391Z,98096.41
2023-04-02T03:28:58.655Z,98095.91
2023-04-02T03:31:25.284Z,98100.56
2023-04-02T03:33:52.721Z,98109.84
2023-04-02T03:36:19.188Z,98108.72
2023-04-02T03:38:45.736Z,98104.84
2023-04-02T03:41:13.466Z,98108.22
2023-04-02T03:43:39.861Z,98113.34
2023-04-02T03:46:07.312Z,98123.75
2023-04-02T03:48:33.762Z,98120.22
2023-04-02T03:51:00.192Z,98122.59
2023-04-02T03:53:26.751Z,98125.31
2023-04-02T03:55:53.363Z,98129.31
2023-04-02T03:58:19.675Z,98135.53
2023-04-02T04:00:46.415Z,98134.41
2023-04-02T04:03:12.894Z,98136.34
2023-04-02T04:05:39.594Z,98142.56
2023-04-02T04:08:05.988Z,98143.34
2023-04-02T04:10:32.344Z,98143.34
2023-04-02T04:12:58.683Z,98140.94
2023-04-02T04:15:25.047Z,98146.38
2023-04-02T04:17:51.655Z,98150.59
2023-04-02T04:20:20.383Z,98150.09
2023-04-02T04:22:46.862Z,98152.03
2023-04-02T04:25:18.866Z,98159.38
2023-04-02T04:27:45.641Z,98155.06
2023-04-02T04:30:12.016Z,98157.47
2023-04-02T04:32:39.649Z,98161.34
2023-04-02T04:35:12.560Z,98159.44
2023-04-02T04:37:39.559Z,98163.72
2023-04-02T04:40:09.309Z,98162.16
2023-04-02T04:42:35.658Z,98162.16
2023-04-02T04:45:04.788Z,98170.97
2023-04-02T04:47:31.299Z,98172.84
2023-04-02T04:49:59.038Z,98173.97
2023-04-02T04:52:25.512Z,98178.28
2023-04-02T04:54:51.987Z,98180.53
2023-04-02T04:57:23.022Z,98184.38
2023-04-02T04:59:49.402Z,98189.78
2023-04-02T05:02:15.834Z,98192.84
2023-04-02T05:04:43.011Z,98192.38
2023-04-02T05:07:13.631Z,98197.31
2023-04-02T05:09:43.251Z,98192.25
2023-04-02T05:12:13.042Z,98198.47
2023-04-02T05:14:39.409Z,98194.03
2023-04-02T05:17:06.348Z,98198.63
2023-04-02T05:19:32.691Z,98207.91
2023-04-02T05:21:59.275Z,98216.06
2023-04-02T05:24:25.845Z,98214.47
2023-04-02T05:26:53.634Z,98219.25
2023-04-02T05:29:19.986Z,98225.47
2023-04-02T05:31:47.142Z,98225.78
2023-04-02T05:34:13.509Z,98228.84
2023-04-02T05:36:40.077Z,98237.28
2023-04-02T05:39:06.514Z,98238.41
2023-04-02T05:41:42.595Z,98258.56
2023-04-02T05:44:08.993Z,98267.47
2023-04-02T05:46:35.362Z,98268.59
2023-04-02T05:49:01.735Z,98292.22
2023-04-02T05:51:28.519Z,98298.28
2023-04-02T05:53:55.244Z,98291.91
2023-04-02T05:56:21.644Z,98307.56
2023-04-02T05:58:50.110Z,98310.78
2023-04-02T06:01:24.818Z,98313.00
2023-04-02T06:03:52.735Z,98325.00
2023-04-02T06:06:19.496Z,98328.81
2023-04-02T06:08:45.865Z,98333.91
2023-04-02T06:11:12.331Z,98340.44
2023-04-02T06:13:40.668Z,98343.97
2023-04-02T06:16:07.446Z,98347.50
2023-04-02T06:18:33.886Z,98352.59
2023-04-02T06:21:00.198Z,98361.84
2023-04-02T06:23:27.486Z,98367.91
2023-04-02T06:25:55.273Z,98372.84
2023-04-02T06:28:22.974Z,98383.69
2023-04-02T06:30:51.873Z,98381.97
2023-04-02T06:33:19.112Z,98398.53
2023-04-02T06:35:46.437Z,98410.69
2023-04-02T06:38:15.542Z,98413.38
2023-04-02T06:40:41.935Z,98414.53
2023-04-02T06:43:13.690Z,98423.28
2023-04-02T06:46:12.449Z,98434.31
2023-04-02T06:48:54.674Z,98436.06
2023-04-02T06:51:21.312Z,98449.78
2023-04-02T06:53:48.081Z,98444.66
2023-04-02T06:56:16.090Z,98441.78
2023-04-02T06:58:42.539Z,98447.53
2023-04-02T07:01:09.113Z,98458.69
2023-04-02T07:03:41.039Z,98462.81
2023-04-02T07:06:20.248Z,98464.88
2023-04-02T07:08:48.717Z,98478.59
2023-04-02T07:11:16.267Z,98480.81
2023-04-02T07:13:43.695Z,98470.63
2023-04-02T07:16:10.310Z,98488.31
2023-04-02T07:18:36.855Z,98493.56
2023-04-02T07:21:05.757Z,98508.53
2023-04-02T07:23:32.229Z,98498.31
2023-04-02T07:25:58.560Z,98503.25
2023-04-02T07:28:24.921Z,98524.78
2023-04-02T07:30:51.318Z,98519.97
2023-04-02T07:33:17.641Z,98525.22
2023-04-02T07:35:44.182Z,98535.28
2023-04-02T07:38:10.549Z,98541.28
2023-04-02T07:40:36.841Z,98546.06
2023-04-02T07:43:03.277Z,98546.38
2023-04-02T07:45:29.586Z,98559.41
2023-04-02T07:47:56.051Z,98557.81
2023-04-02T07:50:22.519Z,98566.06
2023-04-02T07:52:48.844Z,98573.72
2023-04-02T07:55:15.197Z,98578.94
2023-04-02T07:57:42.027Z,98590.41
2023-04-02T08:00:09.475Z,98592.63
2023-04-02T08:02:38.681Z,98599.47
2023-04-02T08:05:05.043Z,98603.59
2023-04-02T08:07:31.369Z,98614.25
2023-04-02T08:09:57.699Z,98612.16
2023-04-02T08:12:24.075Z,98627.59
2023-04-02T08:14:50.400Z,98625.44
2023-04-02T08:17:16.703Z,98620.88
2023-04-02T08:19:54.186Z,98638.81
2023-04-02T08:22:21.662Z,98633.53
2023-04-02T08:24:48.041Z,98649.28
2023-04-02T08:27:14.368Z,98648.50
2023-04-02T08:29:40.740Z,98651.47
2023-04-02T08:32:07.129Z,98666.13
2023-04-02T08:34:33.509Z,98657.50
2023-04-02T08:36:59.878Z,98672.97
2023-04-02T08:39:26.293Z,98668.94
2023-04-02T08:41:52.608Z,98677.69
2023-04-02T08:44:18.996Z,98683.72
2023-04-02T08:46:45.359Z,98692.16
2023-04-02T08:49:11.670Z,98686.22
2023-04-02T08:51:38.063Z,98693.03
2023-04-02T08:54:04.756Z,98693.03
2023-04-02T08:56:31.140Z,98703.38
2023-04-02T08:58:57.460Z,98708.31
2023-04-02T09:01:23.866Z,98718.91
2023-04-02T09:03:50.185Z,98718.44
2023-04-02T09:06:16.772Z,98721.75
2023-04-02T09:08:43.257Z,98723.13
2023-04-02T09:11:09.567Z,98729.16
2023-04-02T09:13:35.921Z,98738.94
2023-04-02T09:16:02.308Z,98741.47
2023-04-02T09:18:28.741Z,98736.84
2023-04-02T09:20:55.101Z,98736.38
2023-04-02T09:23:21.489Z,98743.19
2023-04-02T09:25:57.409Z,98740.47
2023-04-02T09:28:29.660Z,98758.38
2023-04-02T09:30:55.988Z,98758.09
2023-04-02T09:33:22.323Z,98766.03
2023-04-02T09:35:48.753Z,98771.19
2023-04-02T09:38:15.079Z,98775.03
2023-04-02T09:40:41.395Z,98782.13
2023-04-02T09:43:07.760Z,98793.56
2023-04-02T09:45:34.358Z,98795.22
2023-04-02T09:48:00.915Z,98806.06
2023-04-02T09:50:27.285Z,98804.72
2023-04-02T09:52:53.593Z,98808.03
2023-04-02T09:55:19.935Z,98814.28
2023-04-02T09:57:46.317Z,98814.88
2023-04-02T10:00:25.255Z,98813.34
2023-04-02T10:02:57.513Z,98810.44
2023-04-02T10:05:39.450Z,98817.88
2023-04-02T10:08:06.704Z,98815.91
2023-04-02T10:10:33.051Z,98825.91
2023-04-02T10:12:59.394Z,98817.78
2023-04-02T10:15:25.754Z,98818.63
2023-04-02T10:17:52.081Z,98823.19
2023-04-02T10:20:18.442Z,98827.81
2023-04-02T10:22:44.800Z,98827.00
2023-04-02T10:25:11.129Z,98827.31
2023-04-02T10:27:37.448Z,98828.72
2023-04-02T10:30:03.827Z,98833.59
2023-04-02T10:32:30.189Z,98835.28
2023-04-02T10:34:56.540Z,98837.16
2023-04-02T10:37:22.906Z,98841.28
2023-04-02T10:39:49.223Z,98842.38
2023-04-02T10:42:15.550Z,98837.25
2023-04-02T10:44:41.922Z,98840.56
2023-04-02T10:47:08.276Z,98857.56
2023-04-02T10:49:35.952Z,98860.88
2023-04-02T10:52:02.374Z,98860.34
2023-04-02T10:54:28.706Z,98855.72
2023-04-02T10:56:55.107Z,98860.34
2023-04-02T10:59:21.521Z,98855.72
2023-04-02T11:01:47.893Z,98856.84
2023-04-02T11:04:14.332Z,98862.25
2023-04-02T11:06:40.724Z,98861.13
2023-04-02T11:09:07.034Z,98872.75
2023-04-02T11:11:33.352Z,98872.75
2023-04-02T11:13:59.720Z,98871.16
2023-04-02T11:16:26.174Z,98873.84
2023-04-02T11:18:52.515Z,98875.75
2023-04-02T11:21:18.877Z,98879.59
2023-04-02T11:23:45.244Z,98887.38
2023-04-02T11:26:11.547Z,98900.09
2023-04-02T11:28:37.937Z,98887.94
2023-04-02T11:31:04.343Z,98890.97
2023-04-02T11:33:38.139Z,98890.97
2023-04-02T11:36:05.719Z,98892.31
2023-04-02T11:38:32.056Z,98895.81
2023-04-02T11:40:58.446Z,98897.19
2023-04-02T11:43:24.850Z,98904.19
2023-04-02T11:45:53.475Z,98904.50
2023-04-02T11:48:20.022Z,98904.78
2023-04-02T11:50:46.743Z,98905.31
2023-04-02T11:53:13.231Z,98905.31
2023-04-02T11:55:39.809Z,98919.09
2023-04-02T11:58:06.381Z,98924.59
2023-04-02T12:00:32.717Z,98927.50
2023-04-02T12:02:59.093Z,98934.00
2023-04-02T12:05:25.521Z,98923.47
2023-04-02T12:07:51.878Z,98928.09
2023-04-02T12:10:18.235Z,98927.88
2023-04-02T12:12:44.603Z,98935.66
2023-04-02T12:15:10.913Z,98933.75
2023-04-02T12:17:37.285Z,98937.03
2023-04-02T12:20:05.634Z,98935.44
2023-04-02T12:22:32.291Z,98943.81
2023-04-02T12:24:58.605Z,98944.66
2023-04-02T12:27:24.981Z,98944.66
2023-04-02T12:29:51.297Z,98944.94
2023-04-02T12:32:17.614Z,98948.44
2023-04-02T12:34:43.992Z,98943.34
2023-04-02T12:37:10.287Z,98949.81
2023-04-02T12:39:36.627Z,98954.13
2023-04-02T12:42:03.014Z,98956.84
2023-04-02T12:44:29.330Z,98957.13
2023-04-02T12:46:55.649Z,98957.91
2023-04-02T12:49:22.017Z,98957.41
2023-04-02T12:51:48.331Z,98965.31
2023-04-02T12:54:14.645Z,98961.28
2023-04-02T12:56:41.005Z,98963.16
2023-04-02T12:59:07.339Z,98968.28
2023-04-02T13:01:33.673Z,98977.19
2023-04-02T13:04:00.221Z,98973.69
2023-04-02T13:06:26.582Z,98980.19
2023-04-02T13:08:52.969Z,98971.56
2023-04-02T13:11:19.322Z,98989.94
2023-04-02T13:13:45.654Z,98982.94
2023-04-02T13:16:12.022Z,98988.03
2023-04-02T13:18:38.407Z,98986.44
2023-04-02T13:21:04.720Z,98991.84
2023-04-02T13:23:31.050Z,98995.34
2023-04-02T13:25:57.424Z,98996.66
2023-04-02T13:28:23.780Z,99000.16
2023-04-02T13:30:50.098Z,99002.38
2023-04-02T13:33:16.504Z,98994.84
2023-04-02T13:35:42.838Z,98999.38
2023-04-02T13:38:09.224Z,99010.16
2023-04-02T13:40:35.771Z,99007.47
2023-04-02T13:43:02.225Z,99024.09
2023-04-02T13:45:28.568Z,99009.16
2023-04-02T13:47:55.024Z,99008.84
2023-04-02T13:50:21.393Z,99009.38
2023-04-02T13:52:47.721Z,99018.00
2023-04-02T13:55:14.087Z,99022.09
2023-04-02T13:57:40.406Z,99024.56
2023-04-02T14:00:06.707Z,99017.25
2023-04-02T14:02:33.082Z,99018.84
2023-04-02T14:04:59.412Z,99025.06
2023-04-02T14:07:25.738Z,99024.78
2023-04-02T14:09:52.112Z,99026.38
2023-04-02T14:12:18.449Z,99038.28
2023-04-02T14:14:44.798Z,99043.97
2023-04-02T14:17:11.173Z,99038.34
2023-04-02T14:19:37.522Z,99043.72
2023-04-02T14:22:03.844Z,99048.03
2023-04-02T14:24:30.231Z,99055.34
2023-04-02T14:26:56.567Z,99057.53
2023-04-02T14:29:22.871Z,99061.31
2023-04-02T14:31:49.229Z,99057.59
2023-04-02T14:34:15.551Z,99077.56
2023-04-02T14:36:41.887Z,99067.31
2023-04-02T14:39:08.269Z,99071.13
2023-04-02T14:41:34.609Z,99073.56
2023-04-02T14:44:00.956Z,99082.44
2023-04-02T14:46:27.415Z,99084.06
2023-04-02T14:48:53.787Z,99086.50
2023-04-02T14:51:20.127Z,99091.06
2023-04-02T14:53:46.584Z,99091.63
2023-04-02T14:56:12.940Z,99102.72
2023-04-02T14:58:39.284Z,99093.28
2023-04-02T15:01:05.693Z,99100.59
2023-04-02T15:03:32.059Z,99108.47
2023-04-02T15:05:58.449Z,99097.13
2023-04-02T15:08:24.822Z,99109.81
2023-04-02T15:10:51.165Z,99105.00
2023-04-02T15:13:17.515Z,99104.28
2023-04-02T15:15:43.879Z,99103.34
2023-04-02T15:18:10.233Z,99098.78
2023-04-02T15:20:36.726Z,99112.28
2023-04-02T15:23:03.217Z,99110.94
2023-04-02T15:25:29.531Z,99116.63
2023-04-02T15:27:55.886Z,99126.63
2023-04-02T15:30:22.253Z,99125.03
2023-04-02T15:32:48.620Z,99136.63
2023-04-02T15:35:15.017Z,99133.38
2023-04-02T15:37:41.374Z,99139.63
2023-04-02T15:40:07.720Z,99139.91
2023-04-02T15:42:34.115Z,99139.66
2023-04-02T15:45:00.505Z,99148.31
2023-04-02T15:47:26.856Z,99146.66
2023-04-02T15:49:53.179Z,99160.97
2023-04-02T15:52:19.586Z,99154.25
2023-04-02T15:54:45.919Z,99165.06
2023-04-02T15:57:12.278Z,99166.13
2023-04-02T15:59:38.710Z,99170.00
2023-04-02T16:02:05.047Z,99161.13
2023-04-02T16:04:31.495Z,99177.78
2023-04-02T16:06:58.062Z,99179.94
2023-04-02T16:09:24.380Z,99176.44
2023-04-02T16:11:50.701Z,99185.88
2023-04-02T16:14:17.060Z,99191.53
2023-04-02T16:16:43.420Z,99186.13
2023-04-02T16:19:16.766Z,99191.81
2023-04-02T16:21:43.475Z,99201.53
2023-04-02T16:24:09.804Z,99193.69
2023-04-02T16:26:36.139Z,99200.19
2023-04-02T16:29:02.498Z,99205.34
2023-04-02T16:31:29.035Z,99203.72
2023-04-02T16:33:55.411Z,99209.94
2023-04-02T16:36:21.784Z,99202.63
2023-04-02T16:38:48.147Z,99210.72
2023-04-02T16:41:14.453Z,99217.75
2023-04-02T16:43:40.801Z,99209.13
2023-04-02T16:46:07.180Z,99215.59
2023-04-02T16:48:33.492Z,99219.38
2023-04-02T16:50:59.843Z,99216.16
2023-04-02T16:53:26.194Z,99224.53
2023-04-02T16:55:52.524Z,99228.03
2023-04-02T16:58:18.896Z,99226.13
2023-04-02T17:00:45.219Z,99228.28
2023-04-02T17:03:11.666Z,99232.63
2023-04-02T17:05:38.110Z,99236.41
2023-04-02T17:08:04.653Z,99240.19
2023-04-02T17:10:31.041Z,99246.38
2023-04-02T17:12:57.402Z,99241.28
2023-04-02T17:15:27.668Z,99250.44
2023-04-02T17:17:55.056Z,99257.72
2023-04-02T17:20:21.449Z,99242.63
2023-04-02T17:22:47.825Z,99255.59
2023-04-02T17:25:14.124Z,99253.97
2023-04-02T17:27:40.491Z,99247.50
2023-04-02T17:30:06.808Z,99257.22
2023-04-02T17:32:33.240Z,99246.94
2023-04-02T17:34:59.748Z,99251.53
2023-04-02T17:37:26.084Z,99255.59
2023-04-02T17:39:52.423Z,99264.25
2023-04-02T17:42:18.803Z,99261.28
2023-04-02T17:44:45.117Z,99266.44
2023-04-02T17:47:11.558Z,99269.13
2023-04-02T17:49:37.967Z,99267.53
2023-04-02T17:52:04.339Z,99271.56
2023-04-02T17:54:30.693Z,99268.03
2023-04-02T17:56:57.088Z,99276.13
2023-04-02T17:59:23.431Z,99286.66
2023-04-02T18:01:49.769Z,99290.72
2023-04-02T18:04:16.141Z,99292.34
2023-04-02T18:06:42.477Z,99294.50
2023-04-02T18:09:08.806Z,99293.69
2023-04-02T18:11:35.210Z,99297.75
2023-04-02T18:14:01.543Z,99303.13
2023-04-02T18:16:27.903Z,99302.31
2023-04-02T18:18:54.277Z,99304.78
2023-04-02T18:21:20.629Z,99306.38
2023-04-02T18:23:46.952Z,99309.06
2023-04-02T18:26:13.343Z,99313.91
2023-04-02T18:28:39.733Z,99320.66
2023-04-02T18:31:06.111Z,99326.34
2023-04-02T18:33:32.546Z,99329.56
2023-04-02T18:35:58.950Z,99334.16
2023-04-02T18:38:25.295Z,99327.13
2023-04-02T18:40:51.667Z,99329.56
2023-04-02T18:43:18.005Z,99330.13
2023-04-02T18:45:44.334Z,99335.50
2023-04-02T18:48:10.705Z,99337.41
2023-04-02T18:50:37.186Z,99330.91
2023-04-02T18:53:03.658Z,99338.22
2023-04-02T18:55:30.007Z,99342.50
2023-04-02T18:57:56.322Z,99341.72
2023-04-02T19:00:22.648Z,99342.50
2023-04-02T19:02:49.194Z,99347.09
2023-04-02T19:05:15.587Z,99347.66
2023-04-02T19:07:41.922Z,99343.88
2023-04-02T19:10:08.297Z,99347.38
2023-04-02T19:12:34.608Z,99353.56
2023-04-02T19:15:00.912Z,99353.28
2023-04-02T19:17:27.341Z,99367.88
2023-04-02T19:19:53.687Z,99367.84
2023-04-02T19:22:20.026Z,99366.22
2023-04-02T19:24:46.378Z,99364.38
2023-04-02T19:27:12.690Z,99370.81
2023-04-02T19:29:39.028Z,99373.00
2023-04-02T19:32:05.391Z,99371.34
2023-04-02T19:34:31.715Z,99376.75
2023-04-02T19:36:58.021Z,99377.56
2023-04-02T19:39:24.410Z,99369.75
2023-04-02T19:41:50.700Z,99367.06
2023-04-02T19:44:17.005Z,99374.56
2023-04-02T19:46:43.403Z,99380.25
2023-04-02T19:49:09.762Z,99379.97
2023-04-02T19:51:36.080Z,99378.34
2023-04-02T19:54:02.480Z,99374.28
2023-04-02T19:56:28.820Z,99373.22
2023-04-02T19:58:56.661Z,99381.31
2023-04-02T20:01:23.167Z,99371.59
2023-04-02T20:03:49.550Z,99371.88
2023-04-02T20:06:15.934Z,99385.34
2023-04-02T20:08:42.299Z,99378.06
2023-04-02T20:11:08.609Z,99379.16
2023-04-02T20:13:34.932Z,99381.84
2023-04-02T20:16:01.299Z,99380.50
2023-04-02T20:18:27.624Z,99385.34
2023-04-02T20:20:53.959Z,99387.75
2023-04-02T20:23:20.343Z,99386.41
2023-04-02T20:25:46.704Z,99391.00
2023-04-02T20:28:13.045Z,99392.59
2023-04-02T20:30:39.568Z,99388.00
2023-04-02T20:33:06.005Z,99396.63
2023-04-02T20:35:32.463Z,99399.31
2023-04-02T20:37:58.840Z,99405.53
2023-04-02T20:40:25.155Z,99400.41
2023-04-02T20:42:51.494Z,99405.25
2023-04-02T20:45:17.875Z,99418.13
2023-04-02T20:47:44.206Z,99406.56
2023-04-02T20:50:10.551Z,99417.63
2023-04-02T20:52:36.924Z,99413.56
2023-04-02T20:55:03.241Z,99418.16
2023-04-02T20:57:29.641Z,99417.34
2023-04-02T20:59:56.047Z,99425.44
2023-04-02T21:02:22.357Z,99416.53
2023-04-02T21:04:48.745Z,99423.00
2023-04-02T21:07:15.167Z,99418.97
2023-04-02T21:09:41.484Z,99418.66
2023-04-02T21:12:07.810Z,99427.03
2023-04-02T21:14:34.175Z,99429.72
2023-04-02T21:17:00.494Z,99421.63
2023-04-02T21:19:26.793Z,99422.44
2023-04-02T21:21:53.156Z,99429.72
2023-04-02T21:24:19.454Z,99435.09
2023-04-02T21:26:45.770Z,99437.00
2023-04-02T21:29:12.178Z,99430.53
2023-04-02T21:31:38.567Z,99431.06
2023-04-02T21:34:04.938Z,99432.97
2023-04-02T21:36:31.313Z,99428.38
2023-04-02T21:38:57.665Z,99428.38
2023-04-02T21:41:24.023Z,99424.59
2023-04-02T21:43:50.387Z,99429.44
2023-04-02T21:46:16.773Z,99432.97
2023-04-02T21:48:43.139Z,99432.97
2023-04-02T21:51:09.514Z,99425.94
2023-04-02T21:53:35.872Z,99429.44
2023-04-02T21:56:02.200Z,99433.22
2023-04-02T21:58:28.545Z,99433.47
2023-04-02T22:00:54.926Z,99437.81
2023-04-02T22:03:31.083Z,99444.25
2023-04-02T22:05:58.206Z,99445.59
2023-04-02T22:08:24.533Z,99443.69
2023-04-02T22:10:50.878Z,99446.94
2023-04-02T22:13:17.308Z,99460.66
2023-04-02T22:15:43.604Z,99455.78
2023-04-02T22:18:09.913Z,99453.38
2023-04-02T22:20:36.409Z,99455.22
2023-04-02T22:23:02.843Z,99459.81
2023-04-02T22:25:29.158Z,99461.72
2023-04-02T22:27:55.526Z,99455.50
2023-04-02T22:30:21.857Z,99467.91
2023-04-02T22:32:48.202Z,99460.91
2023-04-02T22:35:14.564Z,99472.75
2023-04-02T22:37:40.898Z,99464.69
2023-04-02T22:40:07.214Z,99472.19
2023-04-02T22:42:33.676Z,99466.53
2023-04-02T22:44:59.990Z,99471.34
2023-04-02T22:47:26.333Z,99476.75
2023-04-02T22:49:52.699Z,99474.34
2023-04-02T22:52:19.065Z,99476.19
2023-04-02T22:54:45.370Z,99474.28
2023-04-02T22:57:11.785Z,99478.03
2023-04-02T22:59:38.120Z,99475.88
2023-04-02T23:02:04.469Z,99488.81
2023-04-02T23:04:30.842Z,99481.78
2023-04-02T23:06:57.165Z,99482.06
2023-04-02T23:09:23.495Z,99487.16
2023-04-02T23:11:49.864Z,99485.25
2023-04-02T23:14:16.192Z,99493.34
2023-04-02T23:16:42.498Z,99493.34
2023-04-02T23:19:08.883Z,99494.16
2023-04-02T23:21:35.226Z,99497.91
2023-04-02T23:24:01.543Z,99499.25
2023-04-02T23:26:27.922Z,99491.69
2023-04-02T23:28:54.248Z,99498.13
2023-04-02T23:31:20.614Z,99496.28
2023-04-02T23:33:47.022Z,99503.78
2023-04-02T23:36:13.395Z,99502.16
2023-04-02T23:38:39.788Z,99486.25
2023-04-02T23:41:06.200Z,99494.59
2023-04-02T23:43:32.514Z,99496.75
2023-04-02T23:45:58.883Z,99484.34
2023-04-02T23:48:25.268Z,99502.66
2023-04-02T23:50:51.602Z,99506.91
2023-04-02T23:53:17.985Z,99502.59
2023-04-02T23:55:44.345Z,99498.28
2023-04-02T23:58:10.647Z,99498.53
